Time;durP1;ratioP1;P1;durP2;ratioP2;P2;SDS_P1;SDS_P2;PMS_P1;PMS_P2;Temp;Humidity;BMP_temperature;BMP_pressure;BME280_temperature;BME280_humidity;BME280_pressure;Samples;Min_cycle;Max_cycle;Signal;HPM_P1;HPM_P2
2022/04/06 00:00:21;;;;;;;33.00;7.80;;;;;;;;;;5013781;28;90193;-77
2022/04/06 00:02:48;;;;;;;24.90;8.57;;;;;;;;;;5016161;28;88728;-77
2022/04/06 00:05:14;;;;;;;28.92;7.13;;;;;;;;;;5013468;28;90027;-77
2022/04/06 00:07:41;;;;;;;25.27;8.10;;;;;;;;;;5016532;28;89713;-77
2022/04/06 00:10:08;;;;;;;33.28;9.65;;;;;;;;;;5015908;28;88634;-77
2022/04/06 00:12:35;;;;;;;24.77;7.55;;;;;;;;;;5016530;28;89436;-77
2022/04/06 00:15:03;;;;;;;29.67;8.00;;;;;;;;;;5015254;28;89824;-76
2022/04/06 00:17:30;;;;;;;32.63;8.75;;;;;;;;;;5017011;28;88688;-77
2022/04/06 00:19:56;;;;;;;24.85;7.90;;;;;;;;;;5015092;28;89638;-77
2022/04/06 00:22:23;;;;;;;30.95;10.00;;;;;;;;;;5015153;28;88816;-77
2022/04/06 00:24:50;;;;;;;31.17;9.43;;;;;;;;;;5014970;28;89649;-77
2022/04/06 00:27:16;;;;;;;29.33;9.40;;;;;;;;;;5014979;28;88599;-77
2022/04/06 00:29:43;;;;;;;31.45;10.13;;;;;;;;;;5014020;28;88919;-77
2022/04/06 00:32:09;;;;;;;32.75;9.57;;;;;;;;;;5013153;28;89667;-77
2022/04/06 00:37:20;;;;;;;17.65;9.85;;;;;;;;;;5014047;28;90523;-77
2022/04/06 00:39:46;;;;;;;29.30;10.00;;;;;;;;;;5016378;28;89681;-77
2022/04/06 00:42:13;;;;;;;28.20;10.43;;;;;;;;;;5015137;28;90010;-77
2022/04/06 00:44:39;;;;;;;30.00;10.32;;;;;;;;;;5010720;28;90691;-77
2022/04/06 00:47:06;;;;;;;26.23;10.13;;;;;;;;;;4999463;28;89153;-77
2022/04/06 00:49:33;;;;;;;35.28;11.10;;;;;;;;;;5001705;28;91037;-78
2022/04/06 00:52:03;;;;;;;34.13;10.88;;;;;;;;;;5013946;28;89543;-77
2022/04/06 00:54:31;;;;;;;29.73;9.93;;;;;;;;;;5012838;28;90649;-77
2022/04/06 00:56:57;;;;;;;28.33;9.15;;;;;;;;;;5015898;28;91033;-77
2022/04/06 00:59:24;;;;;;;32.55;10.48;;;;;;;;;;5016510;28;90095;-77
2022/04/06 01:01:50;;;;;;;27.92;9.30;;;;;;;;;;5014912;28;89072;-77
2022/04/06 01:04:17;;;;;;;23.90;9.60;;;;;;;;;;5013892;28;89701;-76
2022/04/06 01:06:51;;;;;;;38.70;10.48;;;;;;;;;;5014969;28;88710;-77
2022/04/06 01:09:18;;;;;;;34.83;10.20;;;;;;;;;;5013399;28;90818;-77
2022/04/06 01:11:45;;;;;;;32.03;9.65;;;;;;;;;;5014824;28;90795;-77
2022/04/06 01:14:11;;;;;;;29.70;9.52;;;;;;;;;;5013520;28;90120;-77
2022/04/06 01:16:38;;;;;;;27.00;9.48;;;;;;;;;;5015157;28;88804;-76
2022/04/06 01:19:05;;;;;;;36.08;10.43;;;;;;;;;;5012556;28;88861;-77
2022/04/06 01:21:36;;;;;;;26.33;10.13;;;;;;;;;;5016887;28;89892;-76
2022/04/06 01:24:03;;;;;;;21.92;9.63;;;;;;;;;;5013086;28;90371;-77
2022/04/06 01:26:29;;;;;;;26.38;9.95;;;;;;;;;;5015411;28;88812;-77
2022/04/06 01:28:56;;;;;;;27.90;10.18;;;;;;;;;;5012057;28;89497;-77
2022/04/06 01:31:22;;;;;;;26.73;9.77;;;;;;;;;;5014351;28;90248;-77
2022/04/06 01:33:49;;;;;;;36.45;10.30;;;;;;;;;;5013127;28;89754;-77
2022/04/06 01:36:15;;;;;;;33.03;10.50;;;;;;;;;;5013227;28;89140;-77
2022/04/06 01:38:41;;;;;;;29.17;9.60;;;;;;;;;;5013144;28;90757;-77
2022/04/06 01:41:08;;;;;;;32.80;10.20;;;;;;;;;;5013219;28;90239;-77
2022/04/06 01:43:34;;;;;;;32.28;10.15;;;;;;;;;;5016896;28;89077;-77
2022/04/06 01:46:01;;;;;;;27.98;10.38;;;;;;;;;;4999841;28;89645;-77
2022/04/06 01:48:28;;;;;;;24.48;8.23;;;;;;;;;;5011610;28;90839;-77
2022/04/06 01:53:39;;;;;;;31.05;9.82;;;;;;;;;;5013306;28;88660;-77
2022/04/06 01:56:06;;;;;;;27.13;9.40;;;;;;;;;;5014599;28;88322;-77
2022/04/06 01:58:32;;;;;;;27.30;8.48;;;;;;;;;;5013482;28;89517;-76
2022/04/06 02:00:58;;;;;;;33.75;9.07;;;;;;;;;;4997234;28;89030;-77
2022/04/06 02:03:25;;;;;;;31.25;9.23;;;;;;;;;;5004272;28;88114;-77
2022/04/06 02:05:52;;;;;;;32.00;8.75;;;;;;;;;;5017647;28;88649;-77
2022/04/06 02:08:18;;;;;;;19.75;7.50;;;;;;;;;;5012791;28;88773;-77
2022/04/06 02:10:45;;;;;;;24.02;8.18;;;;;;;;;;5012568;28;90296;-77
2022/04/06 02:13:11;;;;;;;23.08;7.93;;;;;;;;;;5013569;28;89800;-77
2022/04/06 02:15:39;;;;;;;21.73;7.38;;;;;;;;;;5012867;28;89189;-77
2022/04/06 02:18:06;;;;;;;19.10;7.15;;;;;;;;;;5014343;28;89872;-77
2022/04/06 02:20:33;;;;;;;22.63;7.60;;;;;;;;;;5013025;28;89595;-77
2022/04/06 02:22:59;;;;;;;15.25;7.50;;;;;;;;;;5014025;28;88767;-77
2022/04/06 02:25:26;;;;;;;29.92;8.07;;;;;;;;;;5003388;28;89561;-77
2022/04/06 02:27:53;;;;;;;25.90;8.63;;;;;;;;;;5002779;28;89747;-77
2022/04/06 02:30:20;;;;;;;26.27;7.35;;;;;;;;;;5015658;28;89741;-77
2022/04/06 02:32:46;;;;;;;27.60;8.10;;;;;;;;;;5016185;28;90512;-77
2022/04/06 02:35:13;;;;;;;22.67;6.95;;;;;;;;;;5017803;28;88800;-77
2022/04/06 02:37:41;;;;;;;14.02;5.93;;;;;;;;;;5015462;28;89796;-77
2022/04/06 02:40:09;;;;;;;25.85;8.05;;;;;;;;;;5016566;28;90068;-77
2022/04/06 02:42:35;;;;;;;20.23;6.20;;;;;;;;;;5015081;28;88745;-77
2022/04/06 02:45:02;;;;;;;18.70;7.50;;;;;;;;;;4997792;28;89538;-77
2022/04/06 02:47:28;;;;;;;18.95;6.78;;;;;;;;;;5011811;28;89859;-77
2022/04/06 02:49:54;;;;;;;19.25;6.45;;;;;;;;;;5007177;28;87304;-77
2022/04/06 02:52:22;;;;;;;12.77;5.72;;;;;;;;;;5017273;28;88821;-77
2022/04/06 02:54:48;;;;;;;17.05;6.28;;;;;;;;;;5016211;28;88769;-77
2022/04/06 02:57:14;;;;;;;19.38;5.47;;;;;;;;;;5017267;28;89626;-77
2022/04/06 02:59:41;;;;;;;23.00;6.20;;;;;;;;;;5015384;28;90803;-77
2022/04/06 03:02:07;;;;;;;22.80;5.80;;;;;;;;;;5017717;28;88706;-77
2022/04/06 03:04:34;;;;;;;15.68;4.85;;;;;;;;;;5014883;28;88561;-77
2022/04/06 03:07:00;;;;;;;20.95;5.82;;;;;;;;;;5017015;28;89865;-77
2022/04/06 03:09:26;;;;;;;13.02;4.32;;;;;;;;;;5018885;28;89043;-77
2022/04/06 03:11:53;;;;;;;16.00;6.13;;;;;;;;;;5015908;28;89838;-77
2022/04/06 03:14:19;;;;;;;17.15;4.30;;;;;;;;;;5014927;28;87760;-77
2022/04/06 03:16:46;;;;;;;14.02;4.28;;;;;;;;;;5017182;28;88822;-77
2022/04/06 03:19:12;;;;;;;15.65;3.97;;;;;;;;;;5014092;28;88686;-77
2022/04/06 03:21:38;;;;;;;9.80;3.50;;;;;;;;;;4998989;28;88773;-77
2022/04/06 03:24:05;;;;;;;14.18;3.78;;;;;;;;;;4997328;28;90250;-76
2022/04/06 03:26:32;;;;;;;17.30;4.05;;;;;;;;;;5016226;28;90302;-77
2022/04/06 03:28:58;;;;;;;13.82;3.65;;;;;;;;;;5015672;28;88099;-77
2022/04/06 03:31:25;;;;;;;14.40;4.53;;;;;;;;;;4979984;28;89537;-77
2022/04/06 03:33:51;;;;;;;8.70;3.33;;;;;;;;;;4977199;28;88116;-77
2022/04/06 03:36:18;;;;;;;13.82;3.58;;;;;;;;;;5014966;28;88632;-77
2022/04/06 03:38:44;;;;;;;12.70;3.50;;;;;;;;;;5017279;28;89026;-77
2022/04/06 03:41:10;;;;;;;9.73;3.08;;;;;;;;;;4996586;28;88688;-77
2022/04/06 03:43:37;;;;;;;14.88;3.55;;;;;;;;;;4996532;28;89471;-77
2022/04/06 03:46:03;;;;;;;16.85;3.00;;;;;;;;;;5011123;28;90531;-77
2022/04/06 03:48:30;;;;;;;15.73;3.70;;;;;;;;;;5002841;28;88050;-77
2022/04/06 03:50:56;;;;;;;19.15;3.22;;;;;;;;;;5012198;28;89758;-77
2022/04/06 03:53:22;;;;;;;11.30;3.33;;;;;;;;;;5019553;28;89739;-77
2022/04/06 03:55:49;;;;;;;10.45;2.55;;;;;;;;;;5014625;28;88592;-77
2022/04/06 03:58:16;;;;;;;9.80;3.13;;;;;;;;;;5017059;28;90124;-76
2022/04/06 04:00:43;;;;;;;7.47;2.83;;;;;;;;;;5015062;28;88726;-76
2022/04/06 04:03:10;;;;;;;14.10;3.70;;;;;;;;;;5016658;28;89556;-77
2022/04/06 04:05:36;;;;;;;11.13;2.70;;;;;;;;;;5014685;28;88981;-77
2022/04/06 04:08:03;;;;;;;15.35;3.03;;;;;;;;;;5015212;28;88161;-77
2022/04/06 04:10:29;;;;;;;6.82;2.50;;;;;;;;;;5013827;28;89961;-77
2022/04/06 04:12:56;;;;;;;13.57;2.92;;;;;;;;;;5015413;28;89244;-77
2022/04/06 04:15:22;;;;;;;9.27;2.45;;;;;;;;;;5018874;28;88059;-77
2022/04/06 04:17:49;;;;;;;5.82;2.67;;;;;;;;;;5014544;28;90056;-76
2022/04/06 04:20:15;;;;;;;14.45;2.40;;;;;;;;;;5015026;28;88767;-77
2022/04/06 04:22:41;;;;;;;10.70;3.17;;;;;;;;;;5014485;28;88617;-77
2022/04/06 04:25:08;;;;;;;6.28;2.15;;;;;;;;;;5016491;28;89910;-77
2022/04/06 04:27:35;;;;;;;10.65;2.38;;;;;;;;;;5014977;28;88821;-77
2022/04/06 04:30:02;;;;;;;13.07;3.55;;;;;;;;;;5014075;28;89033;-76
2022/04/06 04:32:33;;;;;;;5.38;2.35;;;;;;;;;;5014545;28;89843;-76
2022/04/06 04:35:03;;;;;;;10.70;1.90;;;;;;;;;;5015815;28;88801;-76
2022/04/06 04:37:30;;;;;;;9.43;2.85;;;;;;;;;;5015890;28;90291;-77
2022/04/06 04:39:56;;;;;;;8.75;2.30;;;;;;;;;;5014701;28;88866;-76
2022/04/06 04:42:22;;;;;;;14.25;2.75;;;;;;;;;;5007259;28;89926;-76
2022/04/06 04:44:49;;;;;;;11.40;2.65;;;;;;;;;;5015543;28;89804;-77
2022/04/06 04:47:16;;;;;;;16.65;2.97;;;;;;;;;;5013231;28;88171;-76
2022/04/06 04:49:43;;;;;;;8.68;3.35;;;;;;;;;;5014239;28;89589;-77
2022/04/06 04:52:09;;;;;;;7.82;2.20;;;;;;;;;;5015061;28;88318;-76
2022/04/06 04:54:36;;;;;;;11.93;3.20;;;;;;;;;;5015063;28;88743;-77
2022/04/06 04:57:03;;;;;;;12.10;3.45;;;;;;;;;;5018629;28;89580;-76
2022/04/06 04:59:29;;;;;;;17.23;2.92;;;;;;;;;;5011907;28;89296;-76
2022/04/06 05:01:55;;;;;;;10.00;3.03;;;;;;;;;;5015863;28;90329;-76
2022/04/06 05:04:22;;;;;;;13.73;3.45;;;;;;;;;;5013340;28;89771;-76
2022/04/06 05:06:48;;;;;;;9.68;2.88;;;;;;;;;;5013869;28;89496;-77
2022/04/06 05:09:14;;;;;;;11.68;3.35;;;;;;;;;;5015996;28;88051;-76
2022/04/06 05:11:41;;;;;;;9.40;2.83;;;;;;;;;;5012533;28;89344;-77
2022/04/06 05:14:07;;;;;;;12.75;3.00;;;;;;;;;;5015579;28;89154;-76
2022/04/06 05:16:33;;;;;;;12.65;3.60;;;;;;;;;;5014178;28;89713;-77
2022/04/06 05:19:01;;;;;;;11.75;3.35;;;;;;;;;;5018094;28;89157;-76
2022/04/06 05:21:27;;;;;;;11.50;3.45;;;;;;;;;;5014169;28;89654;-76
2022/04/06 05:23:53;;;;;;;16.25;3.50;;;;;;;;;;5015268;28;90518;-77
2022/04/06 05:26:20;;;;;;;11.18;3.00;;;;;;;;;;5013722;28;88865;-76
2022/04/06 05:28:46;;;;;;;18.08;3.38;;;;;;;;;;5015648;28;89942;-76
2022/04/06 05:31:12;;;;;;;9.23;3.80;;;;;;;;;;4998001;28;88759;-76
2022/04/06 05:33:39;;;;;;;11.38;3.08;;;;;;;;;;4994714;28;89251;-76
2022/04/06 05:36:05;;;;;;;18.00;3.38;;;;;;;;;;5006133;28;89627;-76
2022/04/06 05:38:34;;;;;;;19.52;3.88;;;;;;;;;;5015352;28;88939;-76
2022/04/06 05:41:02;;;;;;;12.07;3.78;;;;;;;;;;5006167;28;87675;-76
2022/04/06 05:43:28;;;;;;;10.38;3.60;;;;;;;;;;4995223;28;88636;-76
2022/04/06 05:45:55;;;;;;;11.43;3.72;;;;;;;;;;5004649;28;88082;-76
2022/04/06 05:48:21;;;;;;;14.48;3.10;;;;;;;;;;5002258;28;89351;-76
2022/04/06 05:50:48;;;;;;;8.55;3.00;;;;;;;;;;4994662;28;89791;-76
2022/04/06 05:53:15;;;;;;;13.65;3.45;;;;;;;;;;4995232;28;88889;-76
2022/04/06 05:55:43;;;;;;;13.02;3.35;;;;;;;;;;5001458;28;89879;-76
2022/04/06 05:58:10;;;;;;;23.10;4.85;;;;;;;;;;5015078;28;89721;-75
2022/04/06 06:00:36;;;;;;;15.82;3.22;;;;;;;;;;5013334;28;88695;-76
2022/04/06 06:03:03;;;;;;;20.52;4.80;;;;;;;;;;5015688;28;89833;-76
2022/04/06 06:05:29;;;;;;;17.83;4.35;;;;;;;;;;5015938;28;88696;-76
2022/04/06 06:07:56;;;;;;;18.67;4.88;;;;;;;;;;5016932;28;88758;-75
2022/04/06 06:10:22;;;;;;;12.73;4.03;;;;;;;;;;5017751;28;90046;-74
2022/04/06 06:12:48;;;;;;;14.27;4.10;;;;;;;;;;5016969;28;88785;-75
2022/04/06 06:15:15;;;;;;;14.70;4.70;;;;;;;;;;5012028;28;90202;-75
2022/04/06 06:17:42;;;;;;;15.48;5.57;;;;;;;;;;4992034;28;91206;-74
2022/04/06 06:20:08;;;;;;;17.95;5.07;;;;;;;;;;4998101;28;89107;-76
2022/04/06 06:22:35;;;;;;;11.10;4.20;;;;;;;;;;5000432;28;88741;-76
2022/04/06 06:25:01;;;;;;;24.60;4.75;;;;;;;;;;5012042;28;88699;-76
2022/04/06 06:27:28;;;;;;;14.85;4.78;;;;;;;;;;4987583;28;90155;-76
2022/04/06 06:29:54;;;;;;;13.80;4.63;;;;;;;;;;4999192;28;88963;-76
2022/04/06 06:32:20;;;;;;;14.18;4.95;;;;;;;;;;5005053;28;89389;-76
2022/04/06 06:34:47;;;;;;;13.70;5.05;;;;;;;;;;5018408;28;89572;-77
2022/04/06 06:37:13;;;;;;;19.35;4.60;;;;;;;;;;5012535;28;90565;-76
2022/04/06 06:39:39;;;;;;;11.07;4.10;;;;;;;;;;5013562;28;88805;-76
2022/04/06 06:42:06;;;;;;;8.77;3.72;;;;;;;;;;5003113;28;89904;-76
2022/04/06 06:44:33;;;;;;;16.17;4.70;;;;;;;;;;4998860;28;89606;-75
2022/04/06 06:47:00;;;;;;;15.77;3.60;;;;;;;;;;4986922;28;88939;-76
2022/04/06 06:49:26;;;;;;;12.60;4.18;;;;;;;;;;4986894;28;89811;-76
2022/04/06 06:51:52;;;;;;;12.48;3.97;;;;;;;;;;4988834;28;89478;-76
2022/04/06 06:54:19;;;;;;;18.85;3.92;;;;;;;;;;4992135;28;88945;-77
2022/04/06 06:56:45;;;;;;;11.90;3.50;;;;;;;;;;5007376;28;89734;-76
2022/04/06 06:59:12;;;;;;;10.13;3.17;;;;;;;;;;5012743;28;88192;-76
2022/04/06 07:01:38;;;;;;;8.68;3.15;;;;;;;;;;5003372;28;89586;-74
2022/04/06 07:04:08;;;;;;;17.77;3.30;;;;;;;;;;5011237;28;88937;-76
2022/04/06 07:06:35;;;;;;;8.63;2.58;;;;;;;;;;5008206;28;88730;-76
2022/04/06 07:09:01;;;;;;;10.55;2.50;;;;;;;;;;5001162;28;89235;-76
2022/04/06 07:11:27;;;;;;;8.35;2.80;;;;;;;;;;5016644;28;89045;-76
2022/04/06 07:13:54;;;;;;;15.57;2.67;;;;;;;;;;5017519;28;89497;-77
2022/04/06 07:16:20;;;;;;;16.75;2.55;;;;;;;;;;5017659;27;89032;-77
2022/04/06 07:18:46;;;;;;;8.65;2.55;;;;;;;;;;5017485;28;89184;-77
2022/04/06 07:21:13;;;;;;;11.95;2.72;;;;;;;;;;5017563;28;88682;-77
2022/04/06 07:23:40;;;;;;;9.15;3.08;;;;;;;;;;5017160;28;89774;-77
2022/04/06 07:26:06;;;;;;;9.80;2.28;;;;;;;;;;4981874;28;90777;-77
2022/04/06 07:28:33;;;;;;;7.22;2.30;;;;;;;;;;4983654;28;90519;-77
2022/04/06 07:30:59;;;;;;;9.88;2.50;;;;;;;;;;4990929;28;88925;-77
2022/04/06 07:33:29;;;;;;;7.28;2.22;;;;;;;;;;4995460;28;89662;-77
2022/04/06 07:35:55;;;;;;;7.22;2.03;;;;;;;;;;4977162;28;89806;-77
2022/04/06 07:38:21;;;;;;;10.02;1.95;;;;;;;;;;4976739;28;89155;-76
2022/04/06 07:40:48;;;;;;;13.63;2.83;;;;;;;;;;4976558;28;89559;-76
2022/04/06 07:43:14;;;;;;;10.45;2.80;;;;;;;;;;4988280;28;89372;-77
2022/04/06 07:45:41;;;;;;;11.88;2.60;;;;;;;;;;4996341;28;89065;-77
2022/04/06 07:48:07;;;;;;;11.05;3.03;;;;;;;;;;4996486;28;89275;-77
2022/04/06 07:50:34;;;;;;;10.05;2.60;;;;;;;;;;4997720;28;90199;-77
2022/04/06 07:53:00;;;;;;;6.78;2.55;;;;;;;;;;4981701;28;89517;-77
2022/04/06 07:55:26;;;;;;;9.52;2.42;;;;;;;;;;4995903;28;89055;-77
2022/04/06 07:57:55;;;;;;;6.88;2.70;;;;;;;;;;4996336;28;88101;-77
2022/04/06 08:00:21;;;;;;;15.40;2.90;;;;;;;;;;4990439;28;89154;-77
2022/04/06 08:02:49;;;;;;;6.75;3.20;;;;;;;;;;4988686;28;88804;-77
2022/04/06 08:05:16;;;;;;;10.05;2.80;;;;;;;;;;4996537;28;88081;-77
2022/04/06 08:07:45;;;;;;;17.48;2.88;;;;;;;;;;4976483;28;89712;-77
2022/04/06 08:10:13;;;;;;;8.73;2.92;;;;;;;;;;4995972;28;89804;-77
2022/04/06 08:12:40;;;;;;;8.35;2.63;;;;;;;;;;4999168;28;88034;-77
2022/04/06 08:15:08;;;;;;;7.63;3.05;;;;;;;;;;4993123;28;91348;-77
2022/04/06 08:17:38;;;;;;;13.95;3.92;;;;;;;;;;4985609;28;88228;-76
2022/04/06 08:20:05;;;;;;;14.88;3.72;;;;;;;;;;4996562;28;89924;-76
2022/04/06 08:22:32;;;;;;;15.63;4.10;;;;;;;;;;4984638;28;88626;-77
2022/04/06 08:24:58;;;;;;;12.65;2.78;;;;;;;;;;4994268;28;89002;-76
2022/04/06 08:27:46;;;;;;;11.52;3.55;;;;;;;;;;4994295;28;89652;-76
2022/04/06 08:30:12;;;;;;;13.13;2.97;;;;;;;;;;4993379;28;89137;-76
2022/04/06 08:32:39;;;;;;;10.60;3.10;;;;;;;;;;4994648;28;88186;-76
2022/04/06 08:35:06;;;;;;;10.75;3.08;;;;;;;;;;4994010;28;90346;-76
2022/04/06 08:37:32;;;;;;;12.38;3.50;;;;;;;;;;5008926;28;88787;-76
2022/04/06 08:39:59;;;;;;;10.38;3.17;;;;;;;;;;4998276;28;90093;-76
2022/04/06 08:42:34;;;;;;;13.10;3.17;;;;;;;;;;4985002;28;89438;-76
2022/04/06 08:45:02;;;;;;;11.02;3.28;;;;;;;;;;4986997;28;88771;-77
2022/04/06 08:47:31;;;;;;;12.63;3.13;;;;;;;;;;4988302;28;93163;-76
2022/04/06 08:49:58;;;;;;;13.88;3.65;;;;;;;;;;4984150;28;89830;-78
2022/04/06 08:52:24;;;;;;;12.65;2.88;;;;;;;;;;4990866;28;88784;-76
2022/04/06 08:55:12;;;;;;;13.13;2.67;;;;;;;;;;4999122;28;89548;-76
2022/04/06 08:57:40;;;;;;;11.52;3.60;;;;;;;;;;4996323;28;89361;-76
2022/04/06 09:00:07;;;;;;;12.85;3.53;;;;;;;;;;4994744;27;89915;-76
2022/04/06 09:02:33;;;;;;;15.05;3.42;;;;;;;;;;4985697;28;89807;-76
2022/04/06 09:05:01;;;;;;;16.38;3.33;;;;;;;;;;4986170;28;89604;-73
2022/04/06 09:07:27;;;;;;;9.40;3.65;;;;;;;;;;4992138;28;90241;-76
2022/04/06 09:09:55;;;;;;;14.95;3.83;;;;;;;;;;4998726;28;88851;-77
2022/04/06 09:12:22;;;;;;;13.52;4.07;;;;;;;;;;4993708;28;89012;-76
2022/04/06 09:15:01;;;;;;;12.93;4.18;;;;;;;;;;4998392;28;89471;-77
2022/04/06 09:17:28;;;;;;;15.27;4.63;;;;;;;;;;4990228;28;89665;-77
2022/04/06 09:19:57;;;;;;;13.18;4.65;;;;;;;;;;4992103;28;88810;-77
2022/04/06 09:22:23;;;;;;;12.90;4.25;;;;;;;;;;4994555;28;89768;-76
2022/04/06 09:24:58;;;;;;;11.27;4.47;;;;;;;;;;4986612;28;89934;-76
2022/04/06 09:27:30;;;;;;;10.73;4.65;;;;;;;;;;4989936;28;91947;-77
2022/04/06 09:30:03;;;;;;;14.93;4.90;;;;;;;;;;4991597;28;90563;-76
2022/04/06 09:32:29;;;;;;;9.82;4.30;;;;;;;;;;4990390;28;91350;-77
2022/04/06 09:35:01;;;;;;;21.03;5.30;;;;;;;;;;4988726;28;89493;-77
2022/04/06 09:37:28;;;;;;;19.08;5.07;;;;;;;;;;4990987;28;88998;-76
2022/04/06 09:39:58;;;;;;;8.50;4.15;;;;;;;;;;4995636;28;89683;-77
2022/04/06 09:42:26;;;;;;;10.85;4.72;;;;;;;;;;4987541;28;90459;-77
2022/04/06 09:47:58;;;;;;;15.68;4.97;;;;;;;;;;4994248;28;89161;-77
2022/04/06 09:50:26;;;;;;;14.35;5.30;;;;;;;;;;4987286;28;89776;-76
2022/04/06 09:52:54;;;;;;;14.45;5.68;;;;;;;;;;4990324;28;89121;-76
2022/04/06 09:55:21;;;;;;;17.02;4.97;;;;;;;;;;4990757;28;90238;-75
2022/04/06 09:57:55;;;;;;;10.43;5.25;;;;;;;;;;4991860;28;90291;-76
2022/04/06 10:00:23;;;;;;;11.75;5.80;;;;;;;;;;4989571;28;88574;-76
2022/04/06 10:03:04;;;;;;;16.30;5.63;;;;;;;;;;5000832;28;89911;-76
2022/04/06 10:05:33;;;;;;;11.57;5.78;;;;;;;;;;4991260;28;88724;-76
2022/04/06 10:08:09;;;;;;;13.55;5.90;;;;;;;;;;5002378;28;89478;-76
2022/04/06 10:10:36;;;;;;;17.08;6.60;;;;;;;;;;4993004;28;94438;-76
2022/04/06 10:13:07;;;;;;;13.77;5.63;;;;;;;;;;4991407;28;91801;-76
2022/04/06 10:15:54;;;;;;;15.70;6.10;;;;;;;;;;4985760;28;95298;-76
2022/04/06 10:18:20;;;;;;;26.83;7.13;;;;;;;;;;4979782;28;93848;-76
2022/04/06 10:21:00;;;;;;;19.40;7.43;;;;;;;;;;4989395;28;94928;-76
2022/04/06 10:23:45;;;;;;;11.23;6.47;;;;;;;;;;4984786;28;96354;-76
2022/04/06 10:26:19;;;;;;;14.18;6.65;;;;;;;;;;4995543;28;94125;-77
2022/04/06 10:28:51;;;;;;;18.10;6.55;;;;;;;;;;4987507;28;93005;-76
2022/04/06 10:31:24;;;;;;;15.20;7.65;;;;;;;;;;4991202;28;93187;-77
2022/04/06 10:34:13;;;;;;;14.75;5.60;;;;;;;;;;5001665;28;92472;-74
2022/04/06 10:36:42;;;;;;;13.52;6.05;;;;;;;;;;4981931;28;94600;-76
2022/04/06 10:39:10;;;;;;;14.30;6.43;;;;;;;;;;4992662;28;93672;-76
2022/04/06 10:41:59;;;;;;;6.63;3.65;;;;;;;;;;4984213;28;93584;-75
2022/04/06 10:44:38;;;;;;;15.15;5.82;;;;;;;;;;4984088;28;93933;-76
2022/04/06 10:47:08;;;;;;;16.25;5.50;;;;;;;;;;4982885;28;96879;-76
2022/04/06 10:49:34;;;;;;;17.60;5.32;;;;;;;;;;4990905;28;93884;-76
2022/04/06 10:52:17;;;;;;;12.45;5.35;;;;;;;;;;4985148;28;93558;-76
2022/04/06 10:54:44;;;;;;;19.70;6.13;;;;;;;;;;4986924;28;94064;-76
2022/04/06 10:57:10;;;;;;;8.38;4.22;;;;;;;;;;4990117;28;93190;-76
2022/04/06 10:59:37;;;;;;;17.92;6.13;;;;;;;;;;4997216;28;94368;-76
2022/04/06 11:02:14;;;;;;;16.13;5.15;;;;;;;;;;5002143;28;92430;-76
2022/04/06 11:04:41;;;;;;;15.82;6.28;;;;;;;;;;4986422;28;93050;-76
2022/04/06 11:07:08;;;;;;;17.25;5.80;;;;;;;;;;4991348;28;94371;-76
2022/04/06 11:12:23;;;;;;;16.88;5.13;;;;;;;;;;4997719;28;95329;-76
2022/04/06 11:14:50;;;;;;;14.55;5.28;;;;;;;;;;4992495;28;94341;-76
2022/04/06 11:17:32;;;;;;;13.85;5.78;;;;;;;;;;4982856;28;96600;-76
2022/04/06 11:20:07;;;;;;;17.13;5.30;;;;;;;;;;4990300;28;94783;-76
2022/04/06 11:22:35;;;;;;;13.23;4.95;;;;;;;;;;5011654;28;93247;-78
2022/04/06 11:25:02;;;;;;;14.63;5.47;;;;;;;;;;4996563;28;93919;-76
2022/04/06 11:27:35;;;;;;;9.73;4.43;;;;;;;;;;4993941;28;93328;-76
2022/04/06 11:30:01;;;;;;;10.23;4.75;;;;;;;;;;4994919;28;91880;-76
2022/04/06 11:32:28;;;;;;;12.90;5.75;;;;;;;;;;4995942;28;92383;-76
2022/04/06 11:34:58;;;;;;;16.85;5.18;;;;;;;;;;4993849;28;92490;-76
2022/04/06 11:37:25;;;;;;;15.27;5.03;;;;;;;;;;4992448;28;94852;-76
2022/04/06 11:39:58;;;;;;;16.77;4.97;;;;;;;;;;4993530;28;94160;-76
2022/04/06 11:42:25;;;;;;;20.00;5.75;;;;;;;;;;4994208;28;92995;-76
2022/04/06 11:44:52;;;;;;;16.48;4.88;;;;;;;;;;4994179;28;94044;-76
2022/04/06 11:47:38;;;;;;;10.75;4.28;;;;;;;;;;4993282;28;94217;-76
2022/04/06 11:50:10;;;;;;;11.55;4.75;;;;;;;;;;4977610;28;92453;-76
2022/04/06 11:52:40;;;;;;;14.93;4.57;;;;;;;;;;4973359;28;94023;-76
2022/04/06 11:55:07;;;;;;;12.77;4.90;;;;;;;;;;4983195;28;93680;-76
2022/04/06 11:57:35;;;;;;;8.43;4.18;;;;;;;;;;4984438;28;93302;-76
2022/04/06 12:00:03;;;;;;;7.93;4.28;;;;;;;;;;4992904;28;94080;-76
2022/04/06 12:02:45;;;;;;;10.10;3.97;;;;;;;;;;4989917;28;95491;-76
2022/04/06 12:05:11;;;;;;;9.07;4.45;;;;;;;;;;4993381;28;95318;-76
2022/04/06 12:07:38;;;;;;;7.43;4.13;;;;;;;;;;4987251;28;94255;-76
2022/04/06 12:10:04;;;;;;;14.15;4.13;;;;;;;;;;4993411;28;92923;-76
2022/04/06 12:12:30;;;;;;;6.10;4.22;;;;;;;;;;4993397;28;93001;-76
2022/04/06 12:14:57;;;;;;;9.52;4.28;;;;;;;;;;4992621;28;94181;-75
2022/04/06 12:17:23;;;;;;;10.18;4.22;;;;;;;;;;4996225;28;93209;-76
2022/04/06 12:19:50;;;;;;;8.55;4.13;;;;;;;;;;4993903;28;93445;-75
2022/04/06 12:22:16;;;;;;;9.10;4.57;;;;;;;;;;4992819;28;92492;-76
2022/04/06 12:24:45;;;;;;;15.02;5.07;;;;;;;;;;4993144;28;94557;-76
2022/04/06 12:27:25;;;;;;;12.82;5.40;;;;;;;;;;4991555;28;96492;-76
2022/04/06 12:30:05;;;;;;;8.23;5.43;;;;;;;;;;4993037;28;92868;-76
2022/04/06 12:32:44;;;;;;;13.43;5.47;;;;;;;;;;4973280;28;93807;-76
2022/04/06 12:35:17;;;;;;;10.55;4.70;;;;;;;;;;4987412;28;93558;-76
2022/04/06 12:37:44;;;;;;;11.10;4.75;;;;;;;;;;4992827;28;92521;-76
2022/04/06 12:40:10;;;;;;;9.07;4.65;;;;;;;;;;4996105;28;93520;-75
2022/04/06 12:42:37;;;;;;;7.53;5.03;;;;;;;;;;4989112;28;92529;-75
2022/04/06 12:45:06;;;;;;;13.25;5.22;;;;;;;;;;4985882;28;94266;-75
2022/04/06 12:47:32;;;;;;;8.68;4.68;;;;;;;;;;4992870;28;93283;-75
2022/04/06 12:50:11;;;;;;;13.35;4.63;;;;;;;;;;4992339;28;92439;-75
2022/04/06 12:52:38;;;;;;;6.88;4.50;;;;;;;;;;4991230;28;94815;-75
2022/04/06 12:55:06;;;;;;;7.35;4.22;;;;;;;;;;4992823;28;94578;-75
2022/04/06 12:57:34;;;;;;;7.30;3.38;;;;;;;;;;4980103;28;92883;-75
2022/04/06 13:00:08;;;;;;;6.45;4.00;;;;;;;;;;4972950;28;94161;-75
2022/04/06 13:02:55;;;;;;;8.73;4.68;;;;;;;;;;4975912;28;93078;-75
2022/04/06 13:05:22;;;;;;;7.50;4.40;;;;;;;;;;4972421;28;94011;-75
2022/04/06 13:07:50;;;;;;;5.32;4.57;;;;;;;;;;4972861;28;94199;-75
2022/04/06 13:10:30;;;;;;;10.30;4.88;;;;;;;;;;4973569;28;92138;-78
2022/04/06 13:12:57;;;;;;;11.88;6.05;;;;;;;;;;4972551;28;93117;-75
2022/04/06 13:15:24;;;;;;;11.32;7.07;;;;;;;;;;4972345;28;94011;-75
2022/04/06 13:17:50;;;;;;;11.88;7.93;;;;;;;;;;4970684;28;95258;-75
2022/04/06 13:20:18;;;;;;;13.80;8.90;;;;;;;;;;4972987;28;96547;-75
2022/04/06 13:22:45;;;;;;;17.52;9.50;;;;;;;;;;4972816;28;92564;-75
2022/04/06 13:25:12;;;;;;;17.00;10.00;;;;;;;;;;4975091;28;92506;-75
2022/04/06 13:27:39;;;;;;;13.73;10.43;;;;;;;;;;4971637;28;94215;-75
2022/04/06 13:30:12;;;;;;;12.27;9.80;;;;;;;;;;4972004;28;92484;-75
2022/04/06 13:32:39;;;;;;;16.55;10.52;;;;;;;;;;4972083;28;93127;-76
2022/04/06 13:35:06;;;;;;;9.88;8.90;;;;;;;;;;4972539;28;93492;-76
2022/04/06 13:37:32;;;;;;;10.75;8.93;;;;;;;;;;4973116;28;92782;-75
2022/04/06 13:39:58;;;;;;;15.90;7.40;;;;;;;;;;4986788;28;95309;-75
2022/04/06 13:42:25;;;;;;;12.57;7.07;;;;;;;;;;4980929;28;97201;-75
2022/04/06 13:44:51;;;;;;;7.50;5.70;;;;;;;;;;4976508;28;92476;-75
2022/04/06 13:47:18;;;;;;;12.98;6.15;;;;;;;;;;4971551;28;93507;-75
2022/04/06 13:49:44;;;;;;;11.52;6.80;;;;;;;;;;4972280;28;92627;-75
2022/04/06 13:52:11;;;;;;;7.72;5.93;;;;;;;;;;4972308;28;93861;-75
2022/04/06 13:54:37;;;;;;;6.47;5.15;;;;;;;;;;4971884;28;94535;-75
2022/04/06 13:57:04;;;;;;;6.70;5.60;;;;;;;;;;4973083;28;92405;-75
2022/04/06 13:59:30;;;;;;;8.50;5.78;;;;;;;;;;4971941;28;93995;-75
2022/04/06 14:01:57;;;;;;;7.43;5.65;;;;;;;;;;4972558;28;94581;-75
2022/04/06 14:04:23;;;;;;;9.43;6.68;;;;;;;;;;4971640;28;92489;-75
2022/04/06 14:06:49;;;;;;;6.90;6.32;;;;;;;;;;4973377;28;94927;-74
2022/04/06 14:09:17;;;;;;;7.25;6.63;;;;;;;;;;4972402;28;92516;-74
2022/04/06 14:11:46;;;;;;;7.57;6.88;;;;;;;;;;4971962;28;94370;-74
2022/04/06 14:14:13;;;;;;;10.52;7.85;;;;;;;;;;4971488;28;94137;-74
2022/04/06 14:16:40;;;;;;;9.43;8.38;;;;;;;;;;4972047;28;92492;-74
2022/04/06 14:19:08;;;;;;;7.22;6.53;;;;;;;;;;4972359;28;93894;-73
2022/04/06 14:21:35;;;;;;;8.88;7.80;;;;;;;;;;4971157;28;94273;-75
2022/04/06 14:24:01;;;;;;;9.45;8.20;;;;;;;;;;4972853;28;91739;-74
2022/04/06 14:26:28;;;;;;;11.18;9.25;;;;;;;;;;4974787;28;93210;-74
2022/04/06 14:28:55;;;;;;;10.88;9.98;;;;;;;;;;4977809;28;94529;-74
2022/04/06 14:31:22;;;;;;;9.98;8.32;;;;;;;;;;4972795;28;94802;-74
2022/04/06 14:33:48;;;;;;;13.80;8.68;;;;;;;;;;4975263;28;94096;-73
2022/04/06 14:36:14;;;;;;;10.05;8.43;;;;;;;;;;4975377;28;93003;-73
2022/04/06 14:38:41;;;;;;;10.60;8.80;;;;;;;;;;4974878;28;93967;-74
2022/04/06 14:41:10;;;;;;;8.75;7.90;;;;;;;;;;4987829;28;94168;-74
2022/04/06 14:43:36;;;;;;;8.80;8.05;;;;;;;;;;4983087;28;93002;-74
2022/04/06 14:46:03;;;;;;;12.85;9.18;;;;;;;;;;4975217;28;94145;-74